19:35
Airports
History
Links
Donate
Help keep this website running!
PayPal
Bitcoin
Information on this page is community maintained and may be outdated or inaccurate and is intended for reference only or PC simulator navigating.
Always use approved charts for navigating.
LEGR
Granada
Granada (LEGR)
Chauchina, Andalucía, Spain (18330)
(C)
Lat/Lng:37° 11' 19.43" N / 3° 46' 38.49" W
37.188731 / -3.777359
Elevation:1860'ft 567mMSL
ID / ICAO:LEGR
Runways:1
Longest:(09-27) 2,896.8m 9,504ft Asphalt
Controlled:Yes
Distance To
Airport ID:
Airport Radio Frequencies
Ground: 121.7
Tower: 118.85
Approach: 118.85
Nearby VORs <50NM
Nearby NDBs
METARUpdated 05-27-17 19:30 GMT
Altimeter: 29.97
Visibility: 6.2 statute miles
Wind: 3 knots (240°)
Temp: 28°c 82°f
Humidity: 30.4%

METAR: LEGR 271930Z 24003KT 170V280 CAVOK 28/09 Q1015

(Powered by phpweather)
Runway 09 / 27
Dimensions:2896.8 x 44.8m 9504' x 147'ft
Surface:Asphalt
Edge Lights:Medium intensity
Runway 09 [A]Runway 27 [B]
Heading:089°TH 269°TH
Lat:
Lng:
37° 11' 19"N
3° 47' 37.38"W
37° 11' 19.87"N
3° 45' 39.6"W
ALS:ALSF-I
TDZ:Yes, lighted
User Notes and Comments
Google Map
Nearby Airports
(C) Granada Armilla 8.7 NM
LEGA ESE 116°
(U) JAYENA 18.1 NM
LE84 S 190°
(C) Leoni Benabu 33.3 NM
LEAX SW 216°
(C) Malaga 53.4 NM
LEMG (WX) SW 228°
(C) Cordoba 74.1 NM
LEBA (WX) NW 307°
(C) Almeria 81.2 NM
LEAM (WX) ESE 107°
(C) BEAS DE SEGURA 87.6 NM
LEBE NNE 31°
VFR Chart
Flight Planning at SkyVector.com